Time;durP1;ratioP1;P1;durP2;ratioP2;P2;SDS_P1;SDS_P2;PMS_P1;PMS_P2;Temp;Humidity;BMP_temperature;BMP_pressure;BME280_temperature;BME280_humidity;BME280_pressure;Samples;Min_cycle;Max_cycle;Signal;HPM_P1;HPM_P2
2022/10/31 04:01:09;;;;;;;;;;;12.80;99.90;;;;;;5851920;23;19927;-71
2022/10/31 04:03:39;;;;;;;;;;;12.70;99.90;;;;;;4950415;28;19926;-69
2022/10/31 04:06:09;;;;;;;;;;;12.70;99.90;;;;;;4950979;28;19933;-70
2022/10/31 04:08:40;;;;;;;;;;;12.60;99.90;;;;;;4947980;28;19927;-70
2022/10/31 04:11:09;;;;;;;;;;;12.70;99.90;;;;;;4949995;28;19958;-70
2022/10/31 04:13:40;;;;;;;;;;;12.70;99.90;;;;;;4926445;29;19938;-67
2022/10/31 04:16:15;;;;;;;;;;;12.70;99.90;;;;;;4940645;29;19958;-70
2022/10/31 04:18:41;;;;;;;;;;;12.70;99.90;;;;;;4942615;29;19935;-70
2022/10/31 04:21:08;;;;;;;;;;;12.60;99.90;;;;;;4940432;29;19993;-70
2022/10/31 04:23:36;;;;;;;;;;;12.60;99.90;;;;;;4948591;28;19958;-70
2022/10/31 04:26:12;;;;;;;;;;;12.60;99.90;;;;;;4936613;28;19938;-70
2022/10/31 04:28:38;;;;;;;;;;;12.60;99.90;;;;;;4951268;29;20001;-70
2022/10/31 04:31:06;;;;;;;;;;;12.60;99.90;;;;;;4949765;28;19926;-70
2022/10/31 04:33:38;;;;;;;;;;;12.60;99.90;;;;;;4951419;29;19933;-70
2022/10/31 04:36:05;;;;;;;;;;;12.60;99.90;;;;;;4946435;28;19927;-70
2022/10/31 04:38:32;;;;;;;;;;;12.60;99.90;;;;;;4950326;28;20413;-69
2022/10/31 04:40:59;;;;;;;;;;;12.60;99.90;;;;;;4952260;28;20393;-69
2022/10/31 04:43:50;;;;;;;;;;;12.60;99.90;;;;;;4941857;28;19927;-70
2022/10/31 04:46:17;;;;;;;;;;;12.50;99.90;;;;;;4940435;28;19927;-70
2022/10/31 04:48:46;;;;;;;;;;;12.40;99.90;;;;;;4943302;28;19927;-70
2022/10/31 04:51:13;;;;;;;;;;;12.40;99.90;;;;;;4932461;28;19949;-69
2022/10/31 04:53:40;;;;;;;;;;;12.40;99.90;;;;;;4937834;29;19972;-70
2022/10/31 04:56:30;;;;;;;;;;;12.40;99.90;;;;;;4958467;28;20301;-70
2022/10/31 04:59:03;;;;;;;;;;;12.40;99.90;;;;;;4924040;29;20298;-69
2022/10/31 05:01:42;;;;;;;;;;;12.40;99.90;;;;;;4941917;28;20321;-69
2022/10/31 05:04:11;;;;;;;;;;;12.40;99.90;;;;;;4933336;29;20371;-69
2022/10/31 05:06:38;;;;;;;;;;;12.40;99.90;;;;;;4934443;29;19981;-69
2022/10/31 05:09:05;;;;;;;;;;;12.40;99.90;;;;;;4929612;29;19926;-69
2022/10/31 05:11:32;;;;;;;;;;;12.40;99.90;;;;;;4931803;29;19938;-69
2022/10/31 05:14:09;;;;;;;;;;;12.40;99.90;;;;;;4932645;29;19933;-69
2022/10/31 05:16:54;;;;;;;;;;;12.40;99.90;;;;;;4937229;29;19941;-69
2022/10/31 05:19:41;;;;;;;;;;;12.50;99.90;;;;;;4935523;29;19934;-69
2022/10/31 05:22:28;;;;;;;;;;;12.50;99.90;;;;;;4936936;29;19927;-70
2022/10/31 05:24:55;;;;;;;;;;;12.50;99.90;;;;;;4930445;29;19934;-70
2022/10/31 05:27:23;;;;;;;;;;;12.50;99.90;;;;;;4944504;28;19934;-69
2022/10/31 05:29:49;;;;;;;;;;;12.50;99.90;;;;;;4944980;28;19962;-72
2022/10/31 05:32:16;;;;;;;;;;;12.60;99.90;;;;;;4946586;28;19934;-68
2022/10/31 05:35:15;;;;;;;;;;;12.70;99.90;;;;;;4941209;28;20078;-69
2022/10/31 05:38:00;;;;;;;;;;;12.70;99.90;;;;;;4951070;29;19933;-68
2022/10/31 05:40:28;;;;;;;;;;;12.80;99.90;;;;;;4945783;29;19932;-69
2022/10/31 05:42:56;;;;;;;;;;;12.80;99.90;;;;;;4937613;28;20019;-66
2022/10/31 05:45:23;;;;;;;;;;;12.80;99.90;;;;;;4936043;29;19930;-69
2022/10/31 05:47:58;;;;;;;;;;;12.80;99.90;;;;;;4940033;29;19934;-69
2022/10/31 05:50:50;;;;;;;;;;;12.80;99.90;;;;;;4923699;28;19950;-69
2022/10/31 05:53:17;;;;;;;;;;;12.80;99.90;;;;;;4942135;28;19927;-69
2022/10/31 05:55:45;;;;;;;;;;;12.80;99.90;;;;;;4930532;29;19978;-69
2022/10/31 05:58:14;;;;;;;;;;;12.90;99.90;;;;;;4928552;29;19962;-69
2022/10/31 06:00:49;;;;;;;;;;;12.90;99.90;;;;;;4935905;29;19974;-70
2022/10/31 06:03:16;;;;;;;;;;;12.90;99.90;;;;;;4927793;29;19934;-68
2022/10/31 06:05:46;;;;;;;;;;;13.00;99.90;;;;;;4939861;28;19927;-76
2022/10/31 06:08:15;;;;;;;;;;;13.00;99.90;;;;;;4929636;28;19927;-69
2022/10/31 06:10:44;;;;;;;;;;;13.00;99.90;;;;;;4938972;29;19928;-69
2022/10/31 06:13:12;;;;;;;;;;;13.10;99.90;;;;;;4931495;28;19985;-69
2022/10/31 06:15:44;;;;;;;;;;;13.10;99.90;;;;;;4944144;29;19931;-68
2022/10/31 06:18:11;;;;;;;;;;;13.20;99.90;;;;;;4931045;28;19926;-70
2022/10/31 06:20:47;;;;;;;;;;;13.20;99.90;;;;;;4929745;29;19931;-68
2022/10/31 06:23:16;;;;;;;;;;;13.10;99.90;;;;;;4939765;28;19934;-69
2022/10/31 06:25:48;;;;;;;;;;;13.10;99.90;;;;;;4931247;28;19931;-69
2022/10/31 06:28:15;;;;;;;;;;;13.10;99.90;;;;;;4936325;29;19990;-67
2022/10/31 06:31:09;;;;;;;;;;;13.00;99.90;;;;;;4942774;29;20279;-69
2022/10/31 06:33:36;;;;;;;;;;;13.00;99.90;;;;;;4931505;29;19927;-69
2022/10/31 06:36:03;;;;;;;;;;;13.00;99.90;;;;;;4939806;28;19927;-69
2022/10/31 06:38:32;;;;;;;;;;;12.90;99.90;;;;;;4929157;29;19931;-69
2022/10/31 06:41:03;;;;;;;;;;;12.90;99.90;;;;;;4934139;28;19927;-68
2022/10/31 06:43:35;;;;;;;;;;;12.80;99.90;;;;;;4933561;29;19928;-68
2022/10/31 06:46:26;;;;;;;;;;;12.90;99.90;;;;;;4931751;29;20017;-70
2022/10/31 06:49:30;;;;;;;;;;;12.90;99.90;;;;;;4934805;29;19938;-69
2022/10/31 06:52:01;;;;;;;;;;;12.90;99.90;;;;;;4933812;29;19927;-68
2022/10/31 06:54:30;;;;;;;;;;;12.90;99.90;;;;;;4941907;28;20017;-69
2022/10/31 06:56:57;;;;;;;;;;;12.90;99.90;;;;;;4928059;29;19934;-69
2022/10/31 06:59:25;;;;;;;;;;;12.90;99.90;;;;;;4936190;28;19926;-68
2022/10/31 07:02:10;;;;;;;;;;;12.90;99.90;;;;;;4932563;29;19934;-69
2022/10/31 07:04:39;;;;;;;;;;;13.00;99.90;;;;;;4938934;28;20467;-69
2022/10/31 07:07:06;;;;;;;;;;;12.90;99.90;;;;;;4935764;29;20027;-69
2022/10/31 07:09:35;;;;;;;;;;;13.00;99.90;;;;;;4944015;29;19926;-69
2022/10/31 07:12:04;;;;;;;;;;;13.00;99.90;;;;;;4930020;29;20298;-67
2022/10/31 07:14:35;;;;;;;;;;;13.00;99.90;;;;;;4936447;29;19927;-68
2022/10/31 07:17:02;;;;;;;;;;;13.10;99.90;;;;;;4928998;28;20279;-70
2022/10/31 07:19:36;;;;;;;;;;;13.10;99.90;;;;;;4943068;29;19934;-69
2022/10/31 07:22:03;;;;;;;;;;;13.10;99.90;;;;;;4936264;29;19934;-69
2022/10/31 07:24:31;;;;;;;;;;;13.20;99.90;;;;;;4934464;29;19927;-70
2022/10/31 07:27:18;;;;;;;;;;;13.20;99.90;;;;;;4934058;29;19946;-71
2022/10/31 07:29:47;;;;;;;;;;;13.30;99.90;;;;;;4949680;28;19927;-70
2022/10/31 07:32:16;;;;;;;;;;;13.30;99.90;;;;;;4952316;28;20018;-71
2022/10/31 07:34:49;;;;;;;;;;;13.30;99.90;;;;;;4940174;28;19934;-70
2022/10/31 07:37:23;;;;;;;;;;;13.40;99.90;;;;;;4932296;29;19926;-68
2022/10/31 07:39:52;;;;;;;;;;;13.50;99.90;;;;;;4933703;29;19979;-69
2022/10/31 07:42:20;;;;;;;;;;;13.50;99.90;;;;;;4936714;29;20390;-68
2022/10/31 07:44:47;;;;;;;;;;;13.60;99.90;;;;;;4930260;29;19927;-67
2022/10/31 07:47:38;;;;;;;;;;;13.70;99.90;;;;;;4945904;29;19950;-70
2022/10/31 07:50:25;;;;;;;;;;;13.80;99.90;;;;;;4922749;29;19982;-66
2022/10/31 07:53:11;;;;;;;;;;;13.80;99.90;;;;;;4935534;29;20070;-67
2022/10/31 07:55:54;;;;;;;;;;;13.90;99.90;;;;;;4933203;29;19927;-64
2022/10/31 07:58:22;;;;;;;;;;;14.00;99.90;;;;;;4945375;28;19927;-67
2022/10/31 08:00:49;;;;;;;;;;;14.10;99.90;;;;;;4938323;28;19927;-66
2022/10/31 08:03:28;;;;;;;;;;;14.20;99.90;;;;;;4935838;28;19927;-67
2022/10/31 08:06:10;;;;;;;;;;;14.20;99.90;;;;;;4924043;29;19933;-67
2022/10/31 08:09:10;;;;;;;;;;;14.30;99.90;;;;;;4921897;29;19934;-67
2022/10/31 08:11:37;;;;;;;;;;;14.40;99.90;;;;;;4929724;29;19931;-68
2022/10/31 08:14:05;;;;;;;;;;;14.50;99.90;;;;;;4940451;28;19930;-67
2022/10/31 08:16:32;;;;;;;;;;;14.50;99.90;;;;;;4938459;28;19949;-68
2022/10/31 08:19:01;;;;;;;;;;;14.60;99.90;;;;;;4935473;29;19927;-67
2022/10/31 08:21:30;;;;;;;;;;;14.60;99.90;;;;;;4935637;28;19962;-67
2022/10/31 08:23:58;;;;;;;;;;;14.70;99.90;;;;;;4936603;28;19934;-67
2022/10/31 08:26:26;;;;;;;;;;;14.70;99.90;;;;;;4940070;29;19930;-67
2022/10/31 08:28:55;;;;;;;;;;;14.80;99.90;;;;;;4950100;28;19935;-67
2022/10/31 08:31:26;;;;;;;;;;;14.90;99.90;;;;;;4946231;29;20032;-67
2022/10/31 08:34:19;;;;;;;;;;;14.90;99.90;;;;;;4953733;28;19934;-68
2022/10/31 08:37:04;;;;;;;;;;;15.00;99.90;;;;;;4943859;29;19933;-67
2022/10/31 08:39:39;;;;;;;;;;;15.10;99.90;;;;;;4952337;28;19926;-68
2022/10/31 08:42:06;;;;;;;;;;;15.20;99.90;;;;;;4949444;28;19934;-68
2022/10/31 08:44:33;;;;;;;;;;;15.30;99.90;;;;;;4952022;28;19930;-64
2022/10/31 08:47:01;;;;;;;;;;;15.30;99.90;;;;;;4946155;28;19933;-71
2022/10/31 08:49:32;;;;;;;;;;;15.50;99.90;;;;;;4932919;28;19934;-71
2022/10/31 08:51:59;;;;;;;;;;;15.60;99.90;;;;;;4938368;28;19973;-71
2022/10/31 08:54:30;;;;;;;;;;;15.70;99.90;;;;;;4933519;29;19954;-71
2022/10/31 08:56:57;;;;;;;;;;;15.80;99.90;;;;;;4936088;29;19931;-72
2022/10/31 08:59:41;;;;;;;;;;;15.90;99.90;;;;;;4930988;29;20314;-66
2022/10/31 09:02:26;;;;;;;;;;;16.00;99.90;;;;;;4927438;29;19934;-68
2022/10/31 09:04:58;;;;;;;;;;;16.10;99.90;;;;;;4929027;29;19926;-73
2022/10/31 09:07:24;;;;;;;;;;;16.20;99.90;;;;;;4918941;29;20005;-68
2022/10/31 09:09:53;;;;;;;;;;;16.20;99.90;;;;;;4930262;29;19966;-68
2022/10/31 09:12:20;;;;;;;;;;;16.30;99.90;;;;;;4937863;28;19927;-67
2022/10/31 09:15:06;;;;;;;;;;;16.30;99.90;;;;;;4918440;29;20047;-66
2022/10/31 09:17:48;;;;;;;;;;;16.30;99.90;;;;;;4935470;29;19927;-68
2022/10/31 09:20:36;;;;;;;;;;;16.40;99.90;;;;;;4934316;28;20391;-67
2022/10/31 09:23:04;;;;;;;;;;;16.50;99.90;;;;;;4940449;28;19927;-67
2022/10/31 09:25:33;;;;;;;;;;;16.60;99.90;;;;;;4937092;28;19967;-68
2022/10/31 09:28:24;;;;;;;;;;;16.70;99.90;;;;;;4937425;29;19932;-67
2022/10/31 09:30:52;;;;;;;;;;;16.90;99.90;;;;;;4945099;28;19927;-67
2022/10/31 09:33:41;;;;;;;;;;;16.90;99.90;;;;;;4941069;29;19978;-67
2022/10/31 09:36:34;;;;;;;;;;;17.10;99.90;;;;;;4952170;28;19933;-67
2022/10/31 09:39:03;;;;;;;;;;;17.20;99.90;;;;;;4934931;29;20143;-67
2022/10/31 09:41:40;;;;;;;;;;;17.30;99.90;;;;;;4943842;29;19933;-67
2022/10/31 09:44:08;;;;;;;;;;;17.40;99.90;;;;;;4939286;29;19926;-68
2022/10/31 09:46:53;;;;;;;;;;;17.40;99.90;;;;;;4953063;28;20029;-67
2022/10/31 09:49:33;;;;;;;;;;;17.40;99.90;;;;;;4949293;28;20018;-67
2022/10/31 09:52:02;;;;;;;;;;;17.60;99.90;;;;;;4951613;29;19961;-67
2022/10/31 09:54:36;;;;;;;;;;;17.80;99.90;;;;;;4945142;28;19926;-68
2022/10/31 09:57:03;;;;;;;;;;;17.80;99.90;;;;;;4950588;29;19927;-65
2022/10/31 09:59:34;;;;;;;;;;;18.00;99.90;;;;;;4944462;28;19973;-67
2022/10/31 10:02:02;;;;;;;;;;;18.10;99.90;;;;;;4946081;28;19965;-68
2022/10/31 10:04:39;;;;;;;;;;;18.10;99.90;;;;;;4947305;28;19942;-67
2022/10/31 10:07:22;;;;;;;;;;;18.10;99.90;;;;;;4941064;29;19933;-68
2022/10/31 10:10:13;;;;;;;;;;;18.10;99.90;;;;;;4942657;29;19980;-68
2022/10/31 10:13:15;;;;;;;;;;;18.00;99.90;;;;;;4940551;29;19933;-68
2022/10/31 10:15:52;;;;;;;;;;;18.00;99.90;;;;;;4943374;28;19950;-68
2022/10/31 10:18:22;;;;;;;;;;;18.20;99.90;;;;;;4935763;28;20060;-68
2022/10/31 10:20:57;;;;;;;;;;;18.80;99.90;;;;;;4923587;29;19927;-68
2022/10/31 10:23:36;;;;;;;;;;;19.70;99.90;;;;;;4938705;29;19937;-68
2022/10/31 10:26:07;;;;;;;;;;;20.60;99.90;;;;;;4942247;29;19931;-68
2022/10/31 10:28:38;;;;;;;;;;;20.10;99.90;;;;;;4944987;28;19926;-68
2022/10/31 10:31:07;;;;;;;;;;;20.00;99.90;;;;;;4936402;29;19933;-68
2022/10/31 10:33:37;;;;;;;;;;;20.30;99.90;;;;;;4925076;29;19931;-68
2022/10/31 10:36:07;;;;;;;;;;;20.00;99.90;;;;;;4923235;29;19927;-67
2022/10/31 10:38:37;;;;;;;;;;;20.20;99.90;;;;;;4925715;29;19938;-68
2022/10/31 10:41:07;;;;;;;;;;;21.00;99.90;;;;;;4941469;28;19934;-68
2022/10/31 10:43:34;;;;;;;;;;;20.70;99.90;;;;;;4926876;29;19931;-68
2022/10/31 10:48:54;;;;;;;;;;;20.30;99.90;;;;;;4928959;29;19923;-69
2022/10/31 10:51:24;;;;;;;;;;;20.20;99.90;;;;;;4937304;28;19927;-68
2022/10/31 10:54:01;;;;;;;;;;;20.10;99.90;;;;;;4934573;29;20383;-69
2022/10/31 10:56:38;;;;;;;;;;;20.10;99.90;;;;;;4944731;29;19927;-71
2022/10/31 10:59:05;;;;;;;;;;;20.20;99.90;;;;;;4939065;29;19977;-68
2022/10/31 11:01:32;;;;;;;;;;;20.30;99.90;;;;;;4955337;28;19926;-68
2022/10/31 11:03:59;;;;;;;;;;;20.40;99.90;;;;;;4952799;28;19934;-69
2022/10/31 11:06:27;;;;;;;;;;;20.30;99.90;;;;;;4940364;29;19935;-68
2022/10/31 11:08:54;;;;;;;;;;;20.40;99.90;;;;;;4951306;29;19937;-68
2022/10/31 11:11:27;;;;;;;;;;;20.60;99.90;;;;;;4952340;29;19926;-68
2022/10/31 11:13:58;;;;;;;;;;;20.50;99.90;;;;;;4951290;29;20001;-67
2022/10/31 11:16:29;;;;;;;;;;;20.50;99.90;;;;;;4937705;29;19938;-68
2022/10/31 11:19:06;;;;;;;;;;;20.30;99.90;;;;;;4938771;29;20386;-66
2022/10/31 11:21:35;;;;;;;;;;;20.20;99.90;;;;;;4950208;28;20386;-67
2022/10/31 11:24:12;;;;;;;;;;;20.00;99.90;;;;;;4969331;23;19974;-70
2022/10/31 11:26:40;;;;;;;;;;;19.80;99.90;;;;;;4936187;29;20021;-69
2022/10/31 11:29:13;;;;;;;;;;;20.00;99.90;;;;;;4927411;29;19927;-69
2022/10/31 11:31:39;;;;;;;;;;;20.20;99.90;;;;;;4932528;29;19962;-68
2022/10/31 11:34:08;;;;;;;;;;;20.30;99.90;;;;;;4912382;29;19975;-69
2022/10/31 11:36:37;;;;;;;;;;;20.20;99.90;;;;;;4910847;29;19928;-69
2022/10/31 11:39:05;;;;;;;;;;;20.20;99.90;;;;;;4909403;29;19927;-67
2022/10/31 11:41:33;;;;;;;;;;;20.30;99.90;;;;;;4909224;29;20303;-68
2022/10/31 11:44:01;;;;;;;;;;;21.00;99.90;;;;;;4912302;29;20663;-69
2022/10/31 11:46:33;;;;;;;;;;;21.70;99.90;;;;;;4916493;29;19935;-68
2022/10/31 11:49:00;;;;;;;;;;;22.30;99.90;;;;;;4916377;29;19935;-69
2022/10/31 11:51:29;;;;;;;;;;;22.80;99.90;;;;;;4914122;29;19927;-67
2022/10/31 11:53:58;;;;;;;;;;;23.70;99.90;;;;;;4906560;29;19927;-67
2022/10/31 11:56:25;;;;;;;;;;;23.80;99.90;;;;;;4910748;29;19928;-69
2022/10/31 11:58:56;;;;;;;;;;;23.40;99.90;;;;;;4914679;29;19967;-67
2022/10/31 12:01:25;;;;;;;;;;;23.40;99.90;;;;;;4913927;29;20330;-67
2022/10/31 12:03:55;;;;;;;;;;;23.80;99.90;;;;;;4914736;29;19931;-70
2022/10/31 12:06:24;;;;;;;;;;;24.30;99.90;;;;;;4910175;29;19927;-69
2022/10/31 12:08:51;;;;;;;;;;;24.40;99.90;;;;;;4912111;29;19983;-69
2022/10/31 12:11:44;;;;;;;;;;;24.90;99.90;;;;;;4916812;29;19970;-69
2022/10/31 12:14:18;;;;;;;;;;;25.10;99.90;;;;;;4910870;29;19942;-69
2022/10/31 12:16:48;;;;;;;;;;;24.80;99.90;;;;;;4915074;29;20398;-69
2022/10/31 12:19:21;;;;;;;;;;;24.20;99.90;;;;;;4915581;29;19927;-69
2022/10/31 12:21:56;;;;;;;;;;;23.80;99.90;;;;;;4914747;29;19928;-72
2022/10/31 12:24:32;;;;;;;;;;;23.10;99.90;;;;;;4912397;29;19935;-68
2022/10/31 12:27:04;;;;;;;;;;;22.10;99.90;;;;;;4901963;29;19962;-69
2022/10/31 12:29:38;;;;;;;;;;;21.50;99.90;;;;;;4913516;29;20396;-68
2022/10/31 12:32:14;;;;;;;;;;;21.10;99.90;;;;;;4916012;29;20410;-71
2022/10/31 12:34:50;;;;;;;;;;;20.80;99.90;;;;;;4909882;29;20030;-71
2022/10/31 12:37:22;;;;;;;;;;;20.40;99.90;;;;;;4923479;29;19931;-70
2022/10/31 12:39:56;;;;;;;;;;;20.10;99.90;;;;;;4915248;29;19975;-71
2022/10/31 12:42:29;;;;;;;;;;;20.00;99.90;;;;;;4914968;29;19934;-70
2022/10/31 12:45:02;;;;;;;;;;;19.90;99.90;;;;;;4907815;29;19959;-70
2022/10/31 12:47:38;;;;;;;;;;;19.80;99.90;;;;;;4908419;29;20360;-68
2022/10/31 12:50:13;;;;;;;;;;;19.70;99.90;;;;;;4923517;29;19931;-69
2022/10/31 12:52:47;;;;;;;;;;;19.60;99.90;;;;;;4925033;29;19931;-70
2022/10/31 12:55:23;;;;;;;;;;;19.50;99.90;;;;;;4911570;29;19928;-68
2022/10/31 12:57:53;;;;;;;;;;;19.20;99.90;;;;;;4910189;29;20408;-72
2022/10/31 13:00:20;;;;;;;;;;;19.00;99.90;;;;;;4907046;29;19932;-70
2022/10/31 13:02:51;;;;;;;;;;;18.90;99.90;;;;;;4913910;29;20533;-71
2022/10/31 13:05:20;;;;;;;;;;;19.00;99.90;;;;;;4915421;29;19927;-74
2022/10/31 13:07:49;;;;;;;;;;;18.90;99.90;;;;;;4924819;29;19970;-68
2022/10/31 13:10:17;;;;;;;;;;;18.90;99.90;;;;;;4910975;29;19931;-70
2022/10/31 13:12:45;;;;;;;;;;;18.90;99.90;;;;;;4913455;29;19964;-72
2022/10/31 13:15:17;;;;;;;;;;;19.00;99.90;;;;;;4911590;29;19931;-69
2022/10/31 13:17:46;;;;;;;;;;;19.10;99.90;;;;;;4913408;29;19927;-70
2022/10/31 13:20:20;;;;;;;;;;;19.10;99.90;;;;;;4914871;29;19927;-69
2022/10/31 13:22:49;;;;;;;;;;;19.00;99.90;;;;;;4913462;29;19927;-68
2022/10/31 13:25:16;;;;;;;;;;;18.80;99.90;;;;;;4914869;29;19931;-68
2022/10/31 13:27:46;;;;;;;;;;;18.80;99.90;;;;;;4907024;29;20394;-70
2022/10/31 13:30:15;;;;;;;;;;;18.70;99.90;;;;;;4910932;29;19931;-69
2022/10/31 13:32:43;;;;;;;;;;;18.60;99.90;;;;;;4919196;29;19935;-70
2022/10/31 13:35:14;;;;;;;;;;;18.50;99.90;;;;;;4914878;29;19966;-69
2022/10/31 13:37:44;;;;;;;;;;;18.40;99.90;;;;;;4898060;29;20375;-69
2022/10/31 13:40:15;;;;;;;;;;;18.20;99.90;;;;;;4909890;29;19939;-70
2022/10/31 13:43:03;;;;;;;;;;;18.20;99.90;;;;;;4921800;29;20026;-68
2022/10/31 13:45:31;;;;;;;;;;;18.20;99.90;;;;;;4900038;29;19978;-69
2022/10/31 13:48:00;;;;;;;;;;;18.40;99.90;;;;;;4902943;29;19975;-69
2022/10/31 13:50:27;;;;;;;;;;;18.50;99.90;;;;;;4909502;29;20322;-69
2022/10/31 13:53:04;;;;;;;;;;;18.60;99.90;;;;;;4904436;29;19933;-70
2022/10/31 13:55:39;;;;;;;;;;;18.70;99.90;;;;;;4910352;29;20015;-68
2022/10/31 13:58:06;;;;;;;;;;;18.80;99.90;;;;;;4910893;29;19931;-70
2022/10/31 14:00:36;;;;;;;;;;;18.80;99.90;;;;;;4906514;29;20018;-70
2022/10/31 14:03:03;;;;;;;;;;;18.70;99.90;;;;;;4912003;29;19934;-69
2022/10/31 14:05:30;;;;;;;;;;;18.80;99.90;;;;;;4912629;29;19927;-70
2022/10/31 14:07:59;;;;;;;;;;;18.70;99.90;;;;;;4925638;29;19927;-69
2022/10/31 14:10:27;;;;;;;;;;;18.60;99.90;;;;;;4908137;29;19927;-69
2022/10/31 14:12:56;;;;;;;;;;;18.50;99.90;;;;;;4908951;29;20022;-68
2022/10/31 14:15:23;;;;;;;;;;;18.50;99.90;;;;;;4900892;29;19979;-71
2022/10/31 14:17:53;;;;;;;;;;;18.60;99.90;;;;;;4905818;29;19938;-69
2022/10/31 14:20:25;;;;;;;;;;;18.70;99.90;;;;;;4897787;29;19979;-69
2022/10/31 14:22:52;;;;;;;;;;;18.80;99.90;;;;;;4911953;29;19939;-70
2022/10/31 14:25:26;;;;;;;;;;;18.90;99.90;;;;;;4905294;29;19932;-70
2022/10/31 14:27:53;;;;;;;;;;;19.10;99.90;;;;;;4905247;29;19932;-69
2022/10/31 14:30:22;;;;;;;;;;;19.60;99.90;;;;;;4915182;29;19927;-69
2022/10/31 14:32:53;;;;;;;;;;;20.20;99.90;;;;;;4915894;29;19927;-69
2022/10/31 14:35:21;;;;;;;;;;;21.00;99.90;;;;;;4904415;29;20037;-70
2022/10/31 14:37:57;;;;;;;;;;;21.60;99.90;;;;;;4913074;29;19982;-70
2022/10/31 14:40:27;;;;;;;;;;;22.00;99.90;;;;;;4904450;29;19927;-70
2022/10/31 14:43:05;;;;;;;;;;;21.80;99.90;;;;;;4916510;29;19934;-70
2022/10/31 14:45:36;;;;;;;;;;;21.70;99.90;;;;;;4907546;29;19927;-71
2022/10/31 14:48:14;;;;;;;;;;;21.60;99.90;;;;;;4905595;29;20403;-68
2022/10/31 14:50:48;;;;;;;;;;;21.70;99.90;;;;;;4929794;29;20402;-70
2022/10/31 14:53:18;;;;;;;;;;;21.80;99.90;;;;;;4906072;29;19934;-68
2022/10/31 14:55:48;;;;;;;;;;;22.30;99.90;;;;;;4915753;29;20407;-70
2022/10/31 14:58:18;;;;;;;;;;;22.80;99.90;;;;;;4919133;29;20394;-69
2022/10/31 15:00:45;;;;;;;;;;;23.00;99.90;;;;;;4913916;29;19927;-70
2022/10/31 15:03:16;;;;;;;;;;;22.50;99.90;;;;;;4907535;29;19934;-70
2022/10/31 15:05:47;;;;;;;;;;;22.20;99.90;;;;;;4908608;29;20358;-71
2022/10/31 15:08:15;;;;;;;;;;;22.10;99.90;;;;;;4904498;29;19927;-72
2022/10/31 15:10:45;;;;;;;;;;;21.70;99.90;;;;;;4912841;29;19928;-70
2022/10/31 15:13:17;;;;;;;;;;;21.20;99.90;;;;;;4911591;29;20355;-69
2022/10/31 15:15:45;;;;;;;;;;;21.00;99.90;;;;;;4914116;29;19936;-70
2022/10/31 15:18:17;;;;;;;;;;;21.10;99.90;;;;;;4914145;29;19934;-69
2022/10/31 15:20:45;;;;;;;;;;;21.30;99.90;;;;;;4906586;29;19971;-69
2022/10/31 15:23:14;;;;;;;;;;;21.40;99.90;;;;;;4909760;29;20402;-70
2022/10/31 15:25:41;;;;;;;;;;;21.60;99.90;;;;;;4914535;29;19927;-69
2022/10/31 15:28:14;;;;;;;;;;;21.70;99.90;;;;;;4913581;29;19928;-69
2022/10/31 15:30:50;;;;;;;;;;;21.60;99.90;;;;;;4911983;29;20023;-70
2022/10/31 15:33:22;;;;;;;;;;;21.50;99.90;;;;;;4910210;29;19927;-71
2022/10/31 15:35:55;;;;;;;;;;;21.10;99.90;;;;;;4914146;29;19935;-70
2022/10/31 15:38:22;;;;;;;;;;;20.70;99.90;;;;;;4908960;29;19927;-69
2022/10/31 15:40:52;;;;;;;;;;;20.20;99.90;;;;;;4903384;29;19936;-69
2022/10/31 15:43:19;;;;;;;;;;;19.70;99.90;;;;;;4907298;29;19942;-71
2022/10/31 15:45:46;;;;;;;;;;;19.40;99.90;;;;;;4908078;29;19927;-71
2022/10/31 15:48:16;;;;;;;;;;;19.20;99.90;;;;;;4908426;29;20343;-70
2022/10/31 15:50:49;;;;;;;;;;;18.90;99.90;;;;;;4909282;29;19927;-71
2022/10/31 15:53:18;;;;;;;;;;;18.70;99.90;;;;;;4911168;29;20350;-72
2022/10/31 15:55:48;;;;;;;;;;;18.50;99.90;;;;;;4914898;29;20467;-73
2022/10/31 15:58:17;;;;;;;;;;;18.40;99.90;;;;;;4905225;29;20394;-69
2022/10/31 16:00:43;;;;;;;;;;;18.30;99.90;;;;;;4912235;29;19932;-71
2022/10/31 16:03:21;;;;;;;;;;;18.10;99.90;;;;;;4912215;29;19990;-70
2022/10/31 16:05:50;;;;;;;;;;;18.00;99.90;;;;;;4908342;29;19935;-71
2022/10/31 16:08:23;;;;;;;;;;;17.80;99.90;;;;;;4915164;29;19927;-71
2022/10/31 16:10:50;;;;;;;;;;;17.70;99.90;;;;;;4922730;29;19934;-71
2022/10/31 16:13:17;;;;;;;;;;;17.60;99.90;;;;;;4914573;29;19982;-70
2022/10/31 16:15:49;;;;;;;;;;;17.50;99.90;;;;;;4913640;29;20357;-67
2022/10/31 16:18:16;;;;;;;;;;;17.50;99.90;;;;;;4904627;29;19935;-70
2022/10/31 16:20:49;;;;;;;;;;;17.40;99.90;;;;;;4900276;29;20447;-69
2022/10/31 16:23:18;;;;;;;;;;;17.30;99.90;;;;;;4901943;29;19927;-69
2022/10/31 16:25:45;;;;;;;;;;;17.20;99.90;;;;;;4914067;29;19927;-69
2022/10/31 16:28:15;;;;;;;;;;;17.20;99.90;;;;;;4911287;29;19981;-68
2022/10/31 16:30:44;;;;;;;;;;;17.20;99.90;;;;;;4912057;29;19927;-68
2022/10/31 16:33:22;;;;;;;;;;;17.10;99.90;;;;;;4901954;29;19928;-68
2022/10/31 16:35:48;;;;;;;;;;;17.20;99.90;;;;;;4905278;29;19931;-68
2022/10/31 16:38:15;;;;;;;;;;;17.20;99.90;;;;;;4898700;29;20303;-69
2022/10/31 16:40:44;;;;;;;;;;;17.20;99.90;;;;;;4910528;29;19927;-69
2022/10/31 16:43:12;;;;;;;;;;;17.20;99.90;;;;;;4912194;29;19927;-69
2022/10/31 16:45:43;;;;;;;;;;;17.20;99.90;;;;;;4906086;29;19946;-69
2022/10/31 16:48:11;;;;;;;;;;;17.20;99.90;;;;;;4913641;29;19978;-70
2022/10/31 16:50:39;;;;;;;;;;;17.20;99.90;;;;;;4908042;29;19975;-70
2022/10/31 16:53:06;;;;;;;;;;;17.20;99.90;;;;;;4907106;29;19927;-71
2022/10/31 16:55:34;;;;;;;;;;;17.20;99.90;;;;;;4908776;29;19927;-70
2022/10/31 16:58:03;;;;;;;;;;;17.10;99.90;;;;;;4907183;29;20027;-70
2022/10/31 17:00:30;;;;;;;;;;;17.10;99.90;;;;;;4911382;29;19927;-67
2022/10/31 17:02:57;;;;;;;;;;;17.10;99.90;;;;;;4913387;29;19934;-69
2022/10/31 17:05:28;;;;;;;;;;;17.10;99.90;;;;;;4903249;29;19927;-71
2022/10/31 17:07:56;;;;;;;;;;;17.10;99.90;;;;;;4909888;29;20386;-67
2022/10/31 17:10:23;;;;;;;;;;;17.00;99.90;;;;;;4907484;29;19962;-68
2022/10/31 17:12:50;;;;;;;;;;;17.00;99.90;;;;;;4911374;29;19978;-69
2022/10/31 17:15:20;;;;;;;;;;;17.00;99.90;;;;;;4911720;29;19927;-69
2022/10/31 17:17:47;;;;;;;;;;;17.00;99.90;;;;;;4910280;29;20458;-70
2022/10/31 17:20:19;;;;;;;;;;;17.00;99.90;;;;;;4907099;29;19927;-69
2022/10/31 17:22:46;;;;;;;;;;;16.90;99.90;;;;;;4909813;29;19927;-70
2022/10/31 17:25:14;;;;;;;;;;;16.80;99.90;;;;;;4904873;29;20364;-69
2022/10/31 17:27:41;;;;;;;;;;;16.80;99.90;;;;;;4904168;29;19927;-69
2022/10/31 17:30:08;;;;;;;;;;;16.70;99.90;;;;;;4916551;29;19982;-70
2022/10/31 17:32:37;;;;;;;;;;;16.70;99.90;;;;;;4902955;29;19931;-71
2022/10/31 17:35:03;;;;;;;;;;;16.60;99.90;;;;;;4907105;29;19934;-69
2022/10/31 17:37:30;;;;;;;;;;;16.50;99.90;;;;;;4911462;29;19963;-71
2022/10/31 17:39:57;;;;;;;;;;;16.50;99.90;;;;;;4911843;29;19928;-80
2022/10/31 17:42:24;;;;;;;;;;;16.50;99.90;;;;;;4905435;29;20347;-70
2022/10/31 17:44:50;;;;;;;;;;;16.40;99.90;;;;;;4912926;29;19988;-69
2022/10/31 17:47:17;;;;;;;;;;;16.30;99.90;;;;;;4927186;29;19927;-70
2022/10/31 17:49:45;;;;;;;;;;;16.30;99.90;;;;;;4911812;29;20658;-69
2022/10/31 17:52:12;;;;;;;;;;;16.30;99.90;;;;;;4907421;29;20379;-69
2022/10/31 17:54:38;;;;;;;;;;;16.30;99.90;;;;;;4909654;29;20395;-69
2022/10/31 17:57:05;;;;;;;;;;;16.20;99.90;;;;;;4907752;29;19967;-70
2022/10/31 17:59:31;;;;;;;;;;;16.20;99.90;;;;;;4909496;29;20410;-70
2022/10/31 18:01:59;;;;;;;;;;;16.10;99.90;;;;;;4911404;29;20019;-70
2022/10/31 18:04:25;;;;;;;;;;;16.10;99.90;;;;;;4913988;29;20303;-70
2022/10/31 18:06:54;;;;;;;;;;;16.00;99.90;;;;;;4912570;29;19963;-70
2022/10/31 18:09:20;;;;;;;;;;;15.90;99.90;;;;;;4901114;29;20474;-70
2022/10/31 18:11:49;;;;;;;;;;;15.90;99.90;;;;;;4909899;29;20399;-69
2022/10/31 18:14:16;;;;;;;;;;;15.90;99.90;;;;;;4901178;29;19940;-70
2022/10/31 18:16:42;;;;;;;;;;;15.90;99.90;;;;;;4920191;29;19927;-70
2022/10/31 18:19:12;;;;;;;;;;;15.90;99.90;;;;;;4910425;29;19983;-69
2022/10/31 18:21:38;;;;;;;;;;;15.80;99.90;;;;;;4910242;29;19955;-70
2022/10/31 18:24:08;;;;;;;;;;;15.80;99.90;;;;;;4906271;29;20350;-69
2022/10/31 18:26:35;;;;;;;;;;;15.80;99.90;;;;;;4911866;29;19927;-70
2022/10/31 18:29:03;;;;;;;;;;;15.80;99.90;;;;;;4903598;29;19931;-71
2022/10/31 18:31:29;;;;;;;;;;;15.70;99.90;;;;;;4908943;29;20403;-71
2022/10/31 18:33:56;;;;;;;;;;;15.70;99.90;;;;;;4916782;29;20367;-71
2022/10/31 18:36:23;;;;;;;;;;;15.70;99.90;;;;;;4905494;29;19928;-71
2022/10/31 18:38:50;;;;;;;;;;;15.60;99.90;;;;;;4905161;29;19928;-69
2022/10/31 18:41:19;;;;;;;;;;;15.60;99.90;;;;;;4903460;29;19927;-71
2022/10/31 18:43:45;;;;;;;;;;;15.70;99.90;;;;;;4907680;29;19979;-70